Aérodrome :
LOGIN :

S'inscrire | Disclaimer

   EN    FR    IT 

 










Légende :    VFR   VFR Marginal   IFR   IFR Intensif   IFR Très Intensif
Visi : 
Plafond : 
>= 8 km
>= 3000ft
5 à 8 km
1000 à 3000 ft
1500m à 5 km
500 à 1000 ft
800 à 1500m
200 à 500 ft
< 800m
< 200 ft
Symboles :   Orages  Brouillard  Fortes neiges  Fortes précipitations  Vent > 20 kt
SIGMETs :   Divers  Orages  Givrage  Turbulence  Onde Orograph.  Cendres Volcan.







- Altitude de l'aérodrome : 194 ft
- Code IATA : LME
- Voir les cartes d'approche


LFRM - Le Mans

DERNIER METAR :
  • 161200Z AUTO 23004KT 190V290 9999 OVC030 06/01 Q1013 NOSIG

METARs EXPIRÉS :
  • 161130Z AUTO 24004KT 200V270 9999 SCT030 06/01 Q1013 NOSIG
  • 161100Z AUTO 23004KT 190V260 CAVOK 05/01 Q1014 NOSIG
  • 161030Z AUTO VRB02KT CAVOK 04/01 Q1014 NOSIG
  • 161000Z AUTO VRB02KT CAVOK 02/00 Q1014 NOSIG
  • 160930Z AUTO VRB02KT CAVOK 02/M00 Q1014 NOSIG

TAF TAF LFRM
Valide du 16 à 12h jusqu'au 17 à 12h UTC


161100Z 1612/1712 VRB03KT CAVOK
BECMG 1612/1614 21010KT
BECMG 1615/1617 BKN012
TEMPO 1617/1620 3000 DZRA OVC005
TEMPO 1620/1622 32015G25KT 4000 SHRA BKN020TCU SCT030CB
BECMG 1622/1624 28008KT SCT020
TEMPO 1705/1706 4500 -SHRA BKN030TCU
Pas de NOTAMs connus pour ce terrain.



MET'MAP, la Météo Aéronautique d'un coup d'oeil ! - Copyright ORBIFLY Décembre 2007 - Disclaimer

ORBIFLY MET'MAP TEAM :

Programmation & Développement : Alexandra Zaïnal
Conception & Développement : Baudouin d'Aumeries
Co-Programmation & Développement : Marc-Olivier Méhu
Soutien technique & logistique : Manuel Goepfert

Contact : metmap@orbifly.com




SOURCES & CREDITS :

   NOAA